createdAt,value
2019-06-27T00:00:09.332Z,6.00
2019-06-27T00:01:09.309Z,6.30
2019-06-27T00:02:09.298Z,5.80
2019-06-27T00:03:09.296Z,5.70
2019-06-27T00:04:09.275Z,5.80
2019-06-27T00:05:09.289Z,5.60
2019-06-27T00:06:09.272Z,6.00
2019-06-27T00:07:09.244Z,6.00
2019-06-27T00:08:09.233Z,5.90
2019-06-27T00:09:09.219Z,5.80
2019-06-27T00:10:09.211Z,6.00
2019-06-27T00:11:09.219Z,5.50
2019-06-27T00:12:09.190Z,5.50
2019-06-27T00:13:09.180Z,5.50
2019-06-27T00:14:09.167Z,5.70
2019-06-27T00:15:09.162Z,5.70
2019-06-27T00:16:09.227Z,5.40
2019-06-27T00:17:09.136Z,6.20
2019-06-27T00:18:09.127Z,6.40
2019-06-27T00:19:09.116Z,5.70
2019-06-27T00:20:09.105Z,6.30
2019-06-27T00:21:09.113Z,6.30
2019-06-27T00:22:09.093Z,6.20
2019-06-27T00:23:09.072Z,6.50
2019-06-27T00:24:09.061Z,6.30
2019-06-27T00:25:09.066Z,5.70
2019-06-27T00:26:09.040Z,6.00
2019-06-27T00:27:09.031Z,6.00
2019-06-27T00:28:09.021Z,5.90
2019-06-27T00:29:09.009Z,6.30
2019-06-27T00:30:09.021Z,5.80
2019-06-27T00:31:08.990Z,5.60
2019-06-27T00:32:08.974Z,6.00
2019-06-27T00:33:08.963Z,6.30
2019-06-27T00:34:08.954Z,5.20
2019-06-27T00:35:08.944Z,5.50
2019-06-27T00:36:08.958Z,5.80
2019-06-27T00:37:08.923Z,5.50
2019-06-27T00:38:08.913Z,5.80
2019-06-27T00:39:08.897Z,5.20
2019-06-27T00:40:08.925Z,5.70
2019-06-27T00:41:08.878Z,5.40
2019-06-27T00:42:08.867Z,5.30
2019-06-27T00:43:08.857Z,5.80
2019-06-27T00:44:08.874Z,5.30
2019-06-27T00:45:08.852Z,4.90
2019-06-27T00:46:08.856Z,5.60
2019-06-27T00:47:08.816Z,5.40
2019-06-27T00:48:08.801Z,5.50
2019-06-27T00:49:08.790Z,5.20
2019-06-27T00:50:08.781Z,5.30
2019-06-27T00:51:08.772Z,5.60
2019-06-27T00:52:08.783Z,5.40
2019-06-27T00:53:08.749Z,5.20
2019-06-27T00:54:08.745Z,5.70
2019-06-27T00:55:08.726Z,4.90
2019-06-27T00:56:08.729Z,5.10
2019-06-27T00:57:13.817Z,5.20
2019-06-27T00:58:09.711Z,5.60
2019-06-27T00:59:08.682Z,5.10
2019-06-27T01:00:08.673Z,4.90
2019-06-27T01:01:08.659Z,4.90
2019-06-27T01:02:08.651Z,5.00
2019-06-27T01:03:08.658Z,4.60
2019-06-27T01:04:08.636Z,5.00
2019-06-27T01:05:08.627Z,4.90
2019-06-27T01:06:08.609Z,4.60
2019-06-27T01:07:08.596Z,5.30
2019-06-27T01:08:08.611Z,4.50
2019-06-27T01:09:08.574Z,5.00
2019-06-27T01:10:08.563Z,4.50
2019-06-27T01:11:08.574Z,4.60
2019-06-27T01:12:08.545Z,4.50
2019-06-27T01:13:08.531Z,4.60
2019-06-27T01:14:08.541Z,4.60
2019-06-27T01:15:08.509Z,4.80
2019-06-27T01:16:08.516Z,4.30
2019-06-27T01:17:08.490Z,4.50
2019-06-27T01:18:08.477Z,4.80
2019-06-27T01:19:08.475Z,4.30
2019-06-27T01:20:08.463Z,4.50
2019-06-27T01:21:08.464Z,4.60
2019-06-27T01:22:08.435Z,4.80
2019-06-27T01:23:08.422Z,4.80
2019-06-27T01:24:08.417Z,4.80
2019-06-27T01:25:08.401Z,4.90
2019-06-27T01:26:08.420Z,5.10
2019-06-27T01:27:08.378Z,4.80
2019-06-27T01:28:08.371Z,4.90
2019-06-27T01:29:08.365Z,4.30
2019-06-27T01:30:08.346Z,4.40
2019-06-27T01:31:08.356Z,4.60
2019-06-27T01:32:08.325Z,4.90
2019-06-27T01:33:08.316Z,4.70
2019-06-27T01:34:08.306Z,4.70
2019-06-27T01:35:08.293Z,4.90
2019-06-27T01:36:08.301Z,4.90
2019-06-27T01:37:08.272Z,4.70
2019-06-27T01:38:08.259Z,4.90
2019-06-27T01:39:08.251Z,4.40
2019-06-27T01:40:08.240Z,4.60
2019-06-27T01:41:08.247Z,5.30
2019-06-27T01:42:08.216Z,5.20
2019-06-27T01:43:08.205Z,4.90
2019-06-27T01:44:08.214Z,5.30
2019-06-27T01:45:08.183Z,5.10
2019-06-27T01:46:08.175Z,4.70
2019-06-27T01:47:08.164Z,5.20
2019-06-27T01:48:08.154Z,4.90
2019-06-27T01:49:08.139Z,4.70
2019-06-27T01:50:08.149Z,5.10
2019-06-27T01:51:08.123Z,4.90
2019-06-27T01:52:08.110Z,4.50
2019-06-27T01:53:08.115Z,4.70
2019-06-27T01:54:08.096Z,4.70
2019-06-27T01:55:08.076Z,4.40
2019-06-27T01:56:08.066Z,4.70
2019-06-27T01:57:08.053Z,4.80
2019-06-27T01:58:08.059Z,4.70
2019-06-27T01:59:08.038Z,4.60
2019-06-27T02:00:08.024Z,4.40
2019-06-27T02:01:08.010Z,4.60
2019-06-27T02:02:07.999Z,4.20
2019-06-27T02:03:07.988Z,3.60
2019-06-27T02:04:07.997Z,4.00
2019-06-27T02:05:07.966Z,4.20
2019-06-27T02:06:07.957Z,4.00
2019-06-27T02:07:07.955Z,4.70
2019-06-27T02:08:07.932Z,4.40
2019-06-27T02:09:08.100Z,4.20
2019-06-27T02:10:07.912Z,4.40
2019-06-27T02:11:07.906Z,4.40
2019-06-27T02:12:07.888Z,4.60
2019-06-27T02:13:07.877Z,5.00
2019-06-27T02:14:07.867Z,5.10
2019-06-27T02:15:07.875Z,4.70
2019-06-27T02:16:07.883Z,4.40
2019-06-27T02:17:07.832Z,4.60
2019-06-27T02:18:07.820Z,4.30
2019-06-27T02:19:07.812Z,5.20
2019-06-27T02:20:07.803Z,4.50
2019-06-27T02:21:07.807Z,4.90
2019-06-27T02:22:07.778Z,4.40
2019-06-27T02:23:07.769Z,4.40
2019-06-27T02:24:07.761Z,5.10
2019-06-27T02:25:07.744Z,5.00
2019-06-27T02:26:07.757Z,4.80
2019-06-27T02:27:07.725Z,4.80
2019-06-27T02:28:07.709Z,4.60
2019-06-27T02:29:07.697Z,5.70
2019-06-27T02:30:07.699Z,5.00
2019-06-27T02:31:07.709Z,5.00
2019-06-27T02:32:07.667Z,4.60
2019-06-27T02:33:07.664Z,4.80
2019-06-27T02:34:07.660Z,4.00
2019-06-27T02:35:07.642Z,4.60
2019-06-27T02:36:07.630Z,4.90
2019-06-27T02:37:07.782Z,4.50
2019-06-27T02:38:07.601Z,4.80
2019-06-27T02:39:07.590Z,5.40
2019-06-27T02:40:07.602Z,4.90
2019-06-27T02:41:07.568Z,4.90
2019-06-27T02:42:07.562Z,5.30
2019-06-27T02:43:07.568Z,5.30
2019-06-27T02:44:07.556Z,5.30
2019-06-27T02:45:07.533Z,5.50
2019-06-27T02:46:07.541Z,5.60
2019-06-27T02:47:07.505Z,5.70
2019-06-27T02:48:07.520Z,5.40
2019-06-27T02:49:07.481Z,6.20
2019-06-27T02:50:07.488Z,6.00
2019-06-27T02:51:07.458Z,6.00
2019-06-27T02:52:07.447Z,6.10
2019-06-27T02:53:07.463Z,6.30
2019-06-27T02:54:07.421Z,5.90
2019-06-27T02:55:07.425Z,6.20
2019-06-27T02:56:07.401Z,5.90
2019-06-27T02:57:07.410Z,6.20
2019-06-27T02:58:27.876Z,5.60
2019-06-27T02:59:08.366Z,6.10
2019-06-27T03:00:07.370Z,6.10
2019-06-27T03:01:07.345Z,6.30
2019-06-27T03:02:07.333Z,6.60
2019-06-27T03:03:07.342Z,5.50
2019-06-27T03:04:07.310Z,5.80
2019-06-27T03:05:07.300Z,6.20
2019-06-27T03:06:07.284Z,5.80
2019-06-27T03:07:07.276Z,5.80
2019-06-27T03:08:07.267Z,6.10
2019-06-27T03:09:07.272Z,6.10
2019-06-27T03:10:07.243Z,5.30
2019-06-27T03:11:07.229Z,5.50
2019-06-27T03:12:07.217Z,5.80
2019-06-27T03:13:07.209Z,5.90
2019-06-27T03:14:07.197Z,5.80
2019-06-27T03:15:07.221Z,6.20
2019-06-27T03:16:07.176Z,5.40
2019-06-27T03:17:07.166Z,5.70
2019-06-27T03:18:07.158Z,5.20
2019-06-27T03:19:07.164Z,5.40
2019-06-27T03:20:07.130Z,5.60
2019-06-27T03:21:07.131Z,5.40
2019-06-27T03:22:07.285Z,6.10
2019-06-27T03:23:07.102Z,5.20
2019-06-27T03:24:07.092Z,6.10
2019-06-27T03:25:07.103Z,5.30
2019-06-27T03:26:07.068Z,5.10
2019-06-27T03:27:07.078Z,5.50
2019-06-27T03:28:07.212Z,5.10
2019-06-27T03:29:07.037Z,5.10
2019-06-27T03:30:07.180Z,5.00
2019-06-27T03:31:07.016Z,4.80
2019-06-27T03:32:07.003Z,5.10
2019-06-27T03:33:07.005Z,5.40
2019-06-27T03:34:07.000Z,5.30
2019-06-27T03:35:06.967Z,5.10
2019-06-27T03:36:06.961Z,5.40
2019-06-27T03:37:06.947Z,5.00
2019-06-27T03:38:06.943Z,5.10
2019-06-27T03:39:06.928Z,4.90
2019-06-27T03:40:06.935Z,4.80
2019-06-27T03:41:06.915Z,5.10
2019-06-27T03:42:06.892Z,4.80
2019-06-27T03:43:06.923Z,4.90
2019-06-27T03:44:06.875Z,4.70
2019-06-27T03:45:06.866Z,4.30
2019-06-27T03:46:07.028Z,4.90
2019-06-27T03:47:06.840Z,4.30
2019-06-27T03:48:06.835Z,4.70
2019-06-27T03:49:06.824Z,5.10
2019-06-27T03:50:06.808Z,4.90
2019-06-27T03:51:06.797Z,4.90
2019-06-27T03:52:06.861Z,4.70
2019-06-27T03:53:06.807Z,4.80
2019-06-27T03:54:06.763Z,4.60
2019-06-27T03:55:06.758Z,5.20
2019-06-27T03:56:06.742Z,4.80
2019-06-27T03:57:06.731Z,5.00
2019-06-27T03:58:06.725Z,4.10
2019-06-27T03:59:12.824Z,4.20
2019-06-27T04:00:07.722Z,4.40
2019-06-27T04:01:06.691Z,4.00
2019-06-27T04:02:06.686Z,4.20
2019-06-27T04:03:06.669Z,4.30
2019-06-27T04:04:06.661Z,4.20
2019-06-27T04:05:06.673Z,3.80
2019-06-27T04:06:06.637Z,4.10
2019-06-27T04:07:06.641Z,4.20
2019-06-27T04:08:06.616Z,3.80
2019-06-27T04:09:06.630Z,3.60
2019-06-27T04:10:06.592Z,3.70
2019-06-27T04:11:06.613Z,3.80
2019-06-27T04:12:06.591Z,3.20
2019-06-27T04:13:06.558Z,4.20
2019-06-27T04:14:06.558Z,3.80
2019-06-27T04:15:06.580Z,4.00
2019-06-27T04:16:06.527Z,3.70
2019-06-27T04:17:06.514Z,3.40
2019-06-27T04:18:06.503Z,3.70
2019-06-27T04:19:06.491Z,4.10
2019-06-27T04:20:06.498Z,3.60
2019-06-27T04:21:06.473Z,3.70
2019-06-27T04:22:06.465Z,3.30
2019-06-27T04:23:06.448Z,3.50
2019-06-27T04:24:06.445Z,4.10
2019-06-27T04:25:06.423Z,3.90
2019-06-27T04:26:06.442Z,4.40
2019-06-27T04:27:06.415Z,4.00
2019-06-27T04:28:06.410Z,4.30
2019-06-27T04:29:06.549Z,3.60
2019-06-27T04:30:06.376Z,3.90
2019-06-27T04:31:06.368Z,4.20
2019-06-27T04:32:06.357Z,4.30
2019-06-27T04:33:06.338Z,4.10
2019-06-27T04:34:06.329Z,4.30
2019-06-27T04:35:06.343Z,3.70
2019-06-27T04:36:06.334Z,3.80
2019-06-27T04:37:06.294Z,3.90
2019-06-27T04:38:06.284Z,3.70
2019-06-27T04:39:06.272Z,4.10
2019-06-27T04:40:06.287Z,4.50
2019-06-27T04:41:06.246Z,4.50
2019-06-27T04:42:06.241Z,4.50
2019-06-27T04:43:06.554Z,4.60
2019-06-27T04:44:06.214Z,4.90
2019-06-27T04:45:06.209Z,4.70
2019-06-27T04:46:06.232Z,5.20
2019-06-27T04:47:06.179Z,4.80
2019-06-27T04:48:06.168Z,4.10
2019-06-27T04:49:06.157Z,4.40
2019-06-27T04:50:06.161Z,4.20
2019-06-27T04:51:06.137Z,4.60
2019-06-27T04:52:06.153Z,4.50
2019-06-27T04:53:06.117Z,4.20
2019-06-27T04:54:06.111Z,5.00
2019-06-27T04:55:06.087Z,4.50
2019-06-27T04:56:06.078Z,4.80
2019-06-27T04:57:06.067Z,4.40
2019-06-27T04:58:06.091Z,4.70
2019-06-27T04:59:06.046Z,4.30
2019-06-27T05:00:06.073Z,4.70
2019-06-27T05:01:06.044Z,4.90
2019-06-27T05:02:06.016Z,4.70
2019-06-27T05:03:06.001Z,4.50
2019-06-27T05:04:06.042Z,4.90
2019-06-27T05:05:05.979Z,4.40
2019-06-27T05:06:05.987Z,4.80
2019-06-27T05:07:05.960Z,5.20
2019-06-27T05:08:05.964Z,5.10
2019-06-27T05:09:05.943Z,4.50
2019-06-27T05:10:05.953Z,4.10
2019-06-27T05:11:05.919Z,5.00
2019-06-27T05:12:05.905Z,4.40
2019-06-27T05:13:05.912Z,4.70
2019-06-27T05:14:05.880Z,4.50
2019-06-27T05:15:05.871Z,4.20
2019-06-27T05:16:05.878Z,5.40
2019-06-27T05:17:05.849Z,4.70
2019-06-27T05:18:05.865Z,4.60
2019-06-27T05:19:05.828Z,4.50
2019-06-27T05:20:05.818Z,4.40
2019-06-27T05:21:05.807Z,5.20
2019-06-27T05:22:05.796Z,5.10
2019-06-27T05:23:05.785Z,4.70
2019-06-27T05:24:05.799Z,4.50
2019-06-27T05:25:05.761Z,5.00
2019-06-27T05:26:05.782Z,4.80
2019-06-27T05:27:05.748Z,4.60
2019-06-27T05:28:05.741Z,5.30
2019-06-27T05:29:05.762Z,4.90
2019-06-27T05:30:09.910Z,4.70
2019-06-27T05:31:05.694Z,4.40
2019-06-27T05:32:05.683Z,4.60
2019-06-27T05:33:05.676Z,5.00
2019-06-27T05:34:05.666Z,4.60
2019-06-27T05:35:05.651Z,4.90
2019-06-27T05:36:05.683Z,4.80
2019-06-27T05:37:05.637Z,5.20
2019-06-27T05:38:05.618Z,5.50
2019-06-27T05:39:05.618Z,5.40
2019-06-27T05:40:05.594Z,4.40
2019-06-27T05:41:05.584Z,5.30
2019-06-27T05:42:05.594Z,5.30
2019-06-27T05:43:05.562Z,4.50
2019-06-27T05:44:05.551Z,4.70
2019-06-27T05:45:05.538Z,4.80
2019-06-27T05:46:05.551Z,5.00
2019-06-27T05:47:05.517Z,4.80
2019-06-27T05:48:05.532Z,4.80
2019-06-27T05:49:05.501Z,5.10
2019-06-27T05:50:05.486Z,4.90
2019-06-27T05:51:05.517Z,5.20
2019-06-27T05:52:05.464Z,5.20
2019-06-27T05:53:05.474Z,4.60
2019-06-27T05:54:05.444Z,4.80
2019-06-27T05:55:05.432Z,5.70
2019-06-27T05:56:05.465Z,5.00
2019-06-27T05:57:05.407Z,5.40
2019-06-27T05:58:05.403Z,5.00
2019-06-27T05:59:05.387Z,4.90
2019-06-27T06:00:05.383Z,5.50
2019-06-27T06:01:05.368Z,5.20
2019-06-27T06:02:05.418Z,5.20
2019-06-27T06:03:05.369Z,5.60
2019-06-27T06:04:05.340Z,4.70
2019-06-27T06:05:05.388Z,4.60
2019-06-27T06:06:05.384Z,5.00
2019-06-27T06:07:05.336Z,5.00
2019-06-27T06:08:05.301Z,5.20
2019-06-27T06:09:05.302Z,4.70
2019-06-27T06:10:05.282Z,5.10
2019-06-27T06:11:05.289Z,4.80
2019-06-27T06:12:05.270Z,5.10
2019-06-27T06:13:05.272Z,5.30
2019-06-27T06:14:05.270Z,5.50
2019-06-27T06:15:05.232Z,6.00
2019-06-27T06:16:05.243Z,5.90
2019-06-27T06:17:05.203Z,5.10
2019-06-27T06:18:05.260Z,5.30
2019-06-27T06:19:05.177Z,4.80
2019-06-27T06:20:05.169Z,5.20
2019-06-27T06:21:05.230Z,5.70
2019-06-27T06:22:05.422Z,4.90
2019-06-27T06:23:05.236Z,4.80
2019-06-27T06:24:05.187Z,5.20
2019-06-27T06:25:05.115Z,4.70
2019-06-27T06:26:05.209Z,5.10
2019-06-27T06:27:05.142Z,5.30
2019-06-27T06:28:05.167Z,5.40
2019-06-27T06:29:05.082Z,4.80
2019-06-27T06:30:05.057Z,5.30
2019-06-27T06:31:05.046Z,5.00
2019-06-27T06:32:05.096Z,4.60
2019-06-27T06:33:05.101Z,5.00
2019-06-27T06:34:05.534Z,5.40
2019-06-27T06:35:05.031Z,4.80
2019-06-27T06:36:04.996Z,4.70
2019-06-27T06:37:08.010Z,4.80
2019-06-27T06:38:04.974Z,5.20
2019-06-27T06:39:04.979Z,4.50
2019-06-27T06:40:05.037Z,5.10
2019-06-27T06:41:04.941Z,4.90
2019-06-27T06:42:04.923Z,4.60
2019-06-27T06:43:05.038Z,4.60
2019-06-27T06:44:04.990Z,4.30
2019-06-27T06:45:04.897Z,4.80
2019-06-27T06:46:04.945Z,4.10
2019-06-27T06:47:04.879Z,4.70
2019-06-27T06:48:04.881Z,5.00
2019-06-27T06:49:04.882Z,4.70
2019-06-27T06:50:04.854Z,4.60
2019-06-27T06:51:04.831Z,4.50
2019-06-27T06:52:05.028Z,4.40
2019-06-27T06:53:04.820Z,4.40
2019-06-27T06:54:04.801Z,4.10
2019-06-27T06:55:04.787Z,4.40
2019-06-27T06:56:04.778Z,5.00
2019-06-27T06:57:04.776Z,4.40
2019-06-27T06:58:04.780Z,4.50
2019-06-27T06:59:04.751Z,4.70
2019-06-27T07:00:04.740Z,4.50
2019-06-27T07:01:04.726Z,4.80
2019-06-27T07:02:04.720Z,5.10
2019-06-27T07:03:04.725Z,4.10
2019-06-27T07:04:04.805Z,6.50
2019-06-27T07:05:04.695Z,4.30
2019-06-27T07:06:04.681Z,3.90
2019-06-27T07:07:04.662Z,4.30
2019-06-27T07:08:04.677Z,4.10
2019-06-27T07:09:04.653Z,4.40
2019-06-27T07:10:04.653Z,4.50
2019-06-27T07:11:04.628Z,4.50
2019-06-27T07:12:04.615Z,5.00
2019-06-27T07:13:04.606Z,4.80
2019-06-27T07:14:04.614Z,4.70
2019-06-27T07:15:04.584Z,4.70
2019-06-27T07:16:04.576Z,4.20
2019-06-27T07:17:04.563Z,4.50
2019-06-27T07:18:04.558Z,4.80
2019-06-27T07:19:04.545Z,4.50
2019-06-27T07:20:04.611Z,4.90
2019-06-27T07:21:04.529Z,4.70
2019-06-27T07:22:04.518Z,5.10
2019-06-27T07:23:04.520Z,5.00
2019-06-27T07:24:04.503Z,4.90
2019-06-27T07:25:04.498Z,5.10
2019-06-27T07:26:04.496Z,4.30
2019-06-27T07:27:04.486Z,5.10
2019-06-27T07:28:04.463Z,5.10
2019-06-27T07:29:04.448Z,4.80
2019-06-27T07:30:04.440Z,4.60
2019-06-27T07:31:17.208Z,5.60
2019-06-27T07:32:05.413Z,5.00
2019-06-27T07:33:04.401Z,4.60
2019-06-27T07:34:04.401Z,4.20
2019-06-27T07:35:04.387Z,4.90
2019-06-27T07:36:04.413Z,4.60
2019-06-27T07:37:04.361Z,4.70
2019-06-27T07:38:04.354Z,5.20
2019-06-27T07:39:04.629Z,5.50
2019-06-27T07:40:04.342Z,4.60
2019-06-27T07:41:04.326Z,4.90
2019-06-27T07:42:04.346Z,5.40
2019-06-27T07:43:04.312Z,4.70
2019-06-27T07:44:04.289Z,4.70
2019-06-27T07:45:04.289Z,4.80
2019-06-27T07:46:04.306Z,5.10
2019-06-27T07:47:04.277Z,4.80
2019-06-27T07:48:04.257Z,4.60
2019-06-27T07:49:04.249Z,4.70
2019-06-27T07:50:04.232Z,4.50
2019-06-27T07:51:04.224Z,4.80
2019-06-27T07:52:04.236Z,5.30
2019-06-27T07:53:04.198Z,4.10
2019-06-27T07:54:04.193Z,4.00
2019-06-27T07:55:04.194Z,4.20
2019-06-27T07:56:04.174Z,4.20
2019-06-27T07:57:04.170Z,4.20
2019-06-27T07:58:04.173Z,3.90
2019-06-27T07:59:04.141Z,3.90
2019-06-27T08:00:04.150Z,4.60
2019-06-27T08:01:04.120Z,4.20
2019-06-27T08:02:04.111Z,4.30
2019-06-27T08:03:04.130Z,5.00
2019-06-27T08:04:04.096Z,5.00
2019-06-27T08:05:04.078Z,4.70
2019-06-27T08:06:04.067Z,4.20
2019-06-27T08:07:04.055Z,4.30
2019-06-27T08:08:04.046Z,4.20
2019-06-27T08:09:04.056Z,4.10
2019-06-27T08:10:04.035Z,5.00
2019-06-27T08:11:04.020Z,4.50
2019-06-27T08:12:04.007Z,4.90
2019-06-27T08:13:03.996Z,4.50
2019-06-27T08:14:03.984Z,4.90
2019-06-27T08:15:04.007Z,4.50
2019-06-27T08:16:03.970Z,3.70
2019-06-27T08:17:03.967Z,3.80
2019-06-27T08:18:03.945Z,3.80
2019-06-27T08:19:03.935Z,3.50
2019-06-27T08:20:03.930Z,4.40
2019-06-27T08:21:03.953Z,4.50
2019-06-27T08:22:03.903Z,3.90
2019-06-27T08:23:03.891Z,4.20
2019-06-27T08:24:03.882Z,4.20
2019-06-27T08:25:03.972Z,4.30
2019-06-27T08:26:03.870Z,4.10
2019-06-27T08:27:03.874Z,4.10
2019-06-27T08:28:03.855Z,4.60
2019-06-27T08:29:03.925Z,4.10
2019-06-27T08:30:07.182Z,4.00
2019-06-27T08:31:03.811Z,3.80
2019-06-27T08:32:03.801Z,3.80
2019-06-27T08:33:03.805Z,3.80
2019-06-27T08:34:03.785Z,3.70
2019-06-27T08:35:03.818Z,3.50
2019-06-27T08:36:03.926Z,3.60
2019-06-27T08:37:03.758Z,3.50
2019-06-27T08:38:03.748Z,3.60
2019-06-27T08:39:03.735Z,4.20
2019-06-27T08:40:03.730Z,4.30
2019-06-27T08:41:03.713Z,4.30
2019-06-27T08:42:03.731Z,4.60
2019-06-27T08:43:03.699Z,3.60
2019-06-27T08:44:03.686Z,4.00
2019-06-27T08:45:03.678Z,3.50
2019-06-27T08:46:03.682Z,4.60
2019-06-27T08:47:03.653Z,4.70
2019-06-27T08:48:03.637Z,5.00
2019-06-27T08:49:03.640Z,4.40
2019-06-27T08:50:03.626Z,4.70
2019-06-27T08:51:03.610Z,4.80
2019-06-27T08:52:03.617Z,4.40
2019-06-27T08:53:03.596Z,4.50
2019-06-27T08:54:03.636Z,4.40
2019-06-27T08:55:03.567Z,4.20
2019-06-27T08:56:03.573Z,5.10
2019-06-27T08:57:03.543Z,4.00
2019-06-27T08:58:03.570Z,4.10
2019-06-27T08:59:03.719Z,4.90
2019-06-27T09:00:03.519Z,4.20
2019-06-27T09:01:03.503Z,4.20
2019-06-27T09:02:08.297Z,4.20
2019-06-27T09:03:04.513Z,3.90
2019-06-27T09:04:03.473Z,3.80
2019-06-27T09:05:03.462Z,3.90
2019-06-27T09:06:03.471Z,4.30
2019-06-27T09:07:03.450Z,3.90
2019-06-27T09:08:03.430Z,4.70
2019-06-27T09:09:03.468Z,4.20
2019-06-27T09:10:03.415Z,4.60
2019-06-27T09:11:03.429Z,4.60
2019-06-27T09:12:03.411Z,3.70
2019-06-27T09:13:03.375Z,4.20
2019-06-27T09:14:03.383Z,4.20
2019-06-27T09:15:03.362Z,4.40
2019-06-27T09:16:03.364Z,4.10
2019-06-27T09:17:03.853Z,4.20
2019-06-27T09:18:03.330Z,3.50
2019-06-27T09:19:03.321Z,3.80
2019-06-27T09:20:03.302Z,4.10
2019-06-27T09:21:03.293Z,4.60
2019-06-27T09:22:03.416Z,4.20
2019-06-27T09:23:03.279Z,3.90
2019-06-27T09:24:03.267Z,4.10
2019-06-27T09:25:03.265Z,3.50
2019-06-27T09:26:03.265Z,3.70
2019-06-27T09:27:03.230Z,3.60
2019-06-27T09:28:03.266Z,3.90
2019-06-27T09:29:03.208Z,4.70
2019-06-27T09:30:03.197Z,4.60
2019-06-27T09:31:03.206Z,3.40
2019-06-27T09:32:03.178Z,3.20
2019-06-27T09:33:03.343Z,3.50
2019-06-27T09:34:03.653Z,2.90
2019-06-27T09:35:03.271Z,3.10
2019-06-27T09:36:03.130Z,3.90
2019-06-27T09:37:03.140Z,3.60
2019-06-27T09:38:03.117Z,3.50
2019-06-27T09:39:03.119Z,3.20
2019-06-27T09:40:03.122Z,2.90
2019-06-27T09:41:03.092Z,3.00
2019-06-27T09:42:03.434Z,3.30
2019-06-27T09:43:03.065Z,3.20
2019-06-27T09:44:03.054Z,3.30
2019-06-27T09:45:03.073Z,3.50
2019-06-27T09:46:03.057Z,3.00
2019-06-27T09:47:03.018Z,3.80
2019-06-27T09:48:03.006Z,3.70
2019-06-27T09:49:03.008Z,3.40
2019-06-27T09:50:02.994Z,2.90
2019-06-27T09:51:02.976Z,2.90
2019-06-27T09:52:03.373Z,2.70
2019-06-27T09:53:02.965Z,2.90
2019-06-27T09:54:02.939Z,2.90
2019-06-27T09:55:02.940Z,2.50
2019-06-27T09:56:02.922Z,2.40
2019-06-27T09:57:02.924Z,2.40
2019-06-27T09:58:02.928Z,2.60
2019-06-27T09:59:02.887Z,2.30
2019-06-27T10:00:02.909Z,2.70
2019-06-27T10:01:05.856Z,2.10
2019-06-27T10:02:02.864Z,2.20
2019-06-27T10:03:02.872Z,2.40
2019-06-27T10:04:04.250Z,2.10
2019-06-27T10:05:02.945Z,2.60
2019-06-27T10:06:03.051Z,2.50
2019-06-27T10:07:02.857Z,2.20
2019-06-27T10:08:02.799Z,2.40
2019-06-27T10:09:02.795Z,2.10
2019-06-27T10:10:02.788Z,2.20
2019-06-27T10:11:02.761Z,2.00
2019-06-27T10:12:02.771Z,2.40
2019-06-27T10:13:02.745Z,1.80
2019-06-27T10:14:02.730Z,2.00
2019-06-27T10:15:02.923Z,2.30
2019-06-27T10:16:02.711Z,2.10
2019-06-27T10:17:02.873Z,2.20
2019-06-27T10:18:02.743Z,1.80
2019-06-27T10:19:02.678Z,1.80
2019-06-27T10:20:02.663Z,2.30
2019-06-27T10:21:02.666Z,2.40
2019-06-27T10:22:24.440Z,2.20
2019-06-27T10:23:02.654Z,2.30
2019-06-27T10:24:02.644Z,2.00
2019-06-27T10:25:02.731Z,2.20
2019-06-27T10:26:02.602Z,2.20
2019-06-27T10:27:02.644Z,2.00
2019-06-27T10:28:02.580Z,2.20
2019-06-27T10:29:02.633Z,2.00
2019-06-27T10:30:02.787Z,2.00
2019-06-27T10:31:02.545Z,2.10
2019-06-27T10:32:02.534Z,2.00
2019-06-27T10:33:02.564Z,2.00
2019-06-27T10:34:02.541Z,2.00
2019-06-27T10:35:02.503Z,2.10
2019-06-27T10:36:02.493Z,1.70
2019-06-27T10:37:02.513Z,2.30
2019-06-27T10:38:02.477Z,2.30
2019-06-27T10:39:02.514Z,2.10
2019-06-27T10:40:02.455Z,2.10
2019-06-27T10:41:02.446Z,2.20
2019-06-27T10:42:02.428Z,2.40
2019-06-27T10:43:02.421Z,2.30
2019-06-27T10:44:02.427Z,2.50
2019-06-27T10:45:02.405Z,2.20
2019-06-27T10:46:02.541Z,2.30
2019-06-27T10:47:02.705Z,1.80
2019-06-27T10:48:02.378Z,1.90
2019-06-27T10:49:02.514Z,1.70
2019-06-27T10:50:02.502Z,1.60
2019-06-27T10:51:02.850Z,1.60
2019-06-27T10:52:02.344Z,1.90
2019-06-27T10:53:02.349Z,1.80
2019-06-27T10:54:02.396Z,2.00
2019-06-27T10:55:02.292Z,2.20
2019-06-27T10:56:02.280Z,1.90
2019-06-27T10:57:02.271Z,1.90
2019-06-27T10:58:02.259Z,1.60
2019-06-27T10:59:02.310Z,2.00
2019-06-27T11:00:02.257Z,2.00
2019-06-27T11:01:02.271Z,1.60
2019-06-27T11:02:02.221Z,2.40
2019-06-27T11:03:14.859Z,2.20
2019-06-27T11:04:03.194Z,2.10
2019-06-27T11:05:02.185Z,2.20
2019-06-27T11:06:02.190Z,2.30
2019-06-27T11:07:02.161Z,2.40
2019-06-27T11:08:02.210Z,2.30
2019-06-27T11:09:02.188Z,2.10
2019-06-27T11:10:02.154Z,2.40
2019-06-27T11:11:02.149Z,2.00
2019-06-27T11:12:02.271Z,2.10
2019-06-27T11:13:02.156Z,2.50
2019-06-27T11:14:02.085Z,2.30
2019-06-27T11:15:02.076Z,2.20
2019-06-27T11:16:02.070Z,2.20
2019-06-27T11:17:02.054Z,2.60
2019-06-27T11:18:02.094Z,2.70
2019-06-27T11:19:02.032Z,2.50
2019-06-27T11:20:02.134Z,2.10
2019-06-27T11:21:02.012Z,2.30
2019-06-27T11:22:02.021Z,2.40
2019-06-27T11:23:02.029Z,2.50
2019-06-27T11:24:02.459Z,2.30
2019-06-27T11:25:02.137Z,1.90
2019-06-27T11:26:01.962Z,2.20
2019-06-27T11:27:02.247Z,2.20
2019-06-27T11:28:01.934Z,2.40
2019-06-27T11:29:01.960Z,2.50
2019-06-27T11:30:01.925Z,2.60
2019-06-27T11:31:01.902Z,2.50
2019-06-27T11:32:01.912Z,2.50
2019-06-27T11:33:01.901Z,2.40
2019-06-27T11:34:01.873Z,2.40
2019-06-27T11:35:01.925Z,2.50
2019-06-27T11:36:01.868Z,2.30
2019-06-27T11:37:01.869Z,2.20
2019-06-27T11:38:01.831Z,3.00
2019-06-27T11:39:01.818Z,2.40
2019-06-27T11:40:01.824Z,2.50
2019-06-27T11:41:01.919Z,2.30
2019-06-27T11:42:01.787Z,2.00
2019-06-27T11:43:01.859Z,1.90
2019-06-27T11:44:01.767Z,1.90
2019-06-27T11:45:01.756Z,1.80
2019-06-27T11:46:01.754Z,2.00
2019-06-27T11:47:01.788Z,2.20
2019-06-27T11:48:01.727Z,2.40
2019-06-27T11:49:01.720Z,2.60
2019-06-27T11:50:01.717Z,3.60
2019-06-27T11:51:01.695Z,3.60
2019-06-27T11:52:01.680Z,3.30
2019-06-27T11:53:01.686Z,3.00
2019-06-27T11:54:01.674Z,2.80
2019-06-27T11:55:01.711Z,2.50
2019-06-27T11:56:01.639Z,2.70
2019-06-27T11:57:01.645Z,2.50
2019-06-27T11:58:01.616Z,2.30
2019-06-27T11:59:01.626Z,2.20
2019-06-27T12:00:01.731Z,2.30
2019-06-27T12:01:01.585Z,2.40
2019-06-27T12:02:01.575Z,2.10
2019-06-27T12:03:01.564Z,2.10
2019-06-27T12:04:01.583Z,1.90
2019-06-27T12:05:01.545Z,2.50
2019-06-27T12:06:01.530Z,2.50
2019-06-27T12:07:01.536Z,2.30
2019-06-27T12:08:01.529Z,2.40
2019-06-27T12:09:01.497Z,2.70
2019-06-27T12:10:01.505Z,3.00
2019-06-27T12:11:01.482Z,2.40
2019-06-27T12:12:01.498Z,2.80
2019-06-27T12:13:01.476Z,2.60
2019-06-27T12:14:01.447Z,2.30
2019-06-27T12:15:01.441Z,2.20
2019-06-27T12:16:01.424Z,2.30
2019-06-27T12:17:01.418Z,2.40
2019-06-27T12:18:01.422Z,2.50
2019-06-27T12:19:01.391Z,2.40
2019-06-27T12:20:01.401Z,2.30
2019-06-27T12:21:01.369Z,2.20
2019-06-27T12:22:01.370Z,2.60
2019-06-27T12:23:01.378Z,2.30
2019-06-27T12:24:01.336Z,2.30
2019-06-27T12:25:01.367Z,1.90
2019-06-27T12:26:01.341Z,2.10
2019-06-27T12:27:01.303Z,2.50
2019-06-27T12:28:01.337Z,2.50
2019-06-27T12:29:01.283Z,2.00
2019-06-27T12:30:01.297Z,2.40
2019-06-27T12:31:01.321Z,2.30
2019-06-27T12:32:01.378Z,2.20
2019-06-27T12:33:01.243Z,2.30
2019-06-27T12:34:07.016Z,2.30
2019-06-27T12:35:02.242Z,2.10
2019-06-27T12:36:01.208Z,1.90
2019-06-27T12:37:01.201Z,1.90
2019-06-27T12:38:01.186Z,2.20
2019-06-27T12:39:01.183Z,2.10
2019-06-27T12:40:01.170Z,2.20
2019-06-27T12:41:01.174Z,2.30
2019-06-27T12:42:01.154Z,2.10
2019-06-27T12:43:01.137Z,2.10
2019-06-27T12:44:01.124Z,2.10
2019-06-27T12:45:01.112Z,2.40
2019-06-27T12:46:01.102Z,2.10
2019-06-27T12:47:01.123Z,2.50
2019-06-27T12:48:06.996Z,1.80
2019-06-27T12:49:02.085Z,2.30
2019-06-27T12:50:03.100Z,2.20
2019-06-27T12:51:01.049Z,2.60
2019-06-27T12:52:01.037Z,2.20
2019-06-27T12:53:01.043Z,2.20
2019-06-27T12:54:01.019Z,2.40
2019-06-27T12:55:01.016Z,2.20
2019-06-27T12:56:00.996Z,2.70
2019-06-27T12:57:01.005Z,2.20
2019-06-27T12:58:01.022Z,2.20
2019-06-27T12:59:00.966Z,2.30
2019-06-27T13:00:00.954Z,2.10
2019-06-27T13:01:00.944Z,2.00
2019-06-27T13:02:00.961Z,2.20
2019-06-27T13:03:00.918Z,2.30
2019-06-27T13:04:00.910Z,2.30
2019-06-27T13:05:00.898Z,2.60
2019-06-27T13:06:00.891Z,2.40
2019-06-27T13:07:00.899Z,2.50
2019-06-27T13:08:00.877Z,2.30
2019-06-27T13:09:00.858Z,2.80
2019-06-27T13:10:00.858Z,2.80
2019-06-27T13:11:00.836Z,2.50
2019-06-27T13:12:01.233Z,2.90
2019-06-27T13:13:00.813Z,2.20
2019-06-27T13:14:00.802Z,2.70
2019-06-27T13:15:00.794Z,2.60
2019-06-27T13:16:00.781Z,2.80
2019-06-27T13:17:00.775Z,2.50
2019-06-27T13:18:00.781Z,2.30